< < Back
Terminal Aerodrome Forecast


Current Version              Previous Versions:   1  2  3  4  5  6  7  8  9  

Terminal Aerodrome Forecast

562
FTUS44 KMOB 312300
TAFMOB
TAF
KMOB 312322Z 0100/0124 17008KT P6SM FEW050 SCT250
     FM010300 16003KT P6SM SKC
     FM011800 16010KT P6SM SCT025=

Latest METAR

798
SAUS80 KWBC 010800 CCA
MTRMOB
METAR KMOB 010756Z AUTO 14003KT 10SM 25/24 A3004 RMK AO2 SLP169
T02500244 $


USA.gov is the U.S. government's official web portal to all federal, state and local government web resources and services.